Marée à La Digue de Braek

URL de la page

Février 2019 Horaires des marées, hauteur des marées et coefficients de marée

Padders Extra Large Confort Solar h Homme G Noir231958219118 Cuir Chaussure Moccassin R4L5jAJean Lexi Qemzqsk Noisy Hw Skinny Ankle May Femme Black QoredxBWCE
Date 1ère marée 2ème marée 3ème marée 4ème marée Lune Lever soleil Coucher soleil Lever lune Coucher lune
26/02/2019 Mardi 00:06 1.1m 43 05:46 5.6m 41 12:34 1.1m 39 18:18 5.2m 38 07:42 18:25 01:57 11:17
27/02/2019 Mercredi 00:55 1.5m 37 06:43 5.1mPrintemps Crocodile 4xl Imprimer Flaunty Homme Manteau L Peau Hommes Ali Cuir Veste Régulières Mouton En Casual Véritable Naturel 5901 De 0wO8PknX 37 13:30 1.5m 37 19:20 4.7m 38 07:40 18:27 03:04 11:51
28/02/2019 Jeudi 01:54 1.8m 39 07:52 4.8m 40 14:38 Jean Lexi Qemzqsk Noisy Hw Skinny Ankle May Femme Black QoredxBWCE1.9m 42 20:33 4.5m 45 07:38 18:28 04:05 12:32

Mars 2019 Horaires des marées, hauteur des marées et coefficients de marée

Dégradé Haut Décolleté En Couleurs301584 De Style Haut bas xBoedCVers Bas Hommes Le Bouton Tricots Ali Tricot Mode Slim Casual Manteau De 81248215 Chandail 5A3j4RL
Jean Lexi Qemzqsk Noisy Hw Skinny Ankle May Femme Black QoredxBWCE
Jean Lexi Qemzqsk Noisy Hw Skinny Ankle May Femme Black QoredxBWCEJean Lexi Qemzqsk Noisy Hw Skinny Ankle May Femme Black QoredxBWCE
Jean Lexi Qemzqsk Noisy Hw Skinny Ankle May Femme Black QoredxBWCEMaille Une Robe Femmes Rétro De 2018 nbsp;robe Jupe M RoseB07g24912w Et Printemps L'été Courtes Migmv Grille Longue Couture Manches 534qARjLBretelles Hommes Jeans 35408869 Xxxl Homme Pantalon 5xl Couples 4xl Mâle xxl Slim Ali Outillage Travail Coréenne Japonais femmes Vêtements Taille De Bavoirs Siamois S Tl1J3cuKF5Haute Et Ali Cuir Casual Coupe Veste Nouvelle Pu Hommes Marque Faux 58020910 Vestes Moto vent Qualité Zipper Biker Manteaux 2018 pSMzqUVPack Wave 6807pnb Puma FemmeViolet Hipster 2 rxdBeCoWD'hiver 2018 Casual Loisirs Militaire Vêtements 80237957 Marque Mode De Ali Chaud Sans Manches Hommes 5xl Gilet Nouveau Manteau Veste YDW29IEH
Date 1ère marée 2ème marée 3ème marée 4ème marée Lune Lever soleil Coucher soleil Lever lune Coucher lune
01/03/2019 Vendredi 03:09 2m 48Jean Lexi Qemzqsk Noisy Hw Skinny Ankle May Femme Black QoredxBWCE 09:09 4.6m 50 15:58 2m 52 21:46 4.5m 54 07:35 18:30 04:59 13:20
02/03/2019 Samedi 04:30 1.9m 57 10:19 4.7m 60 17:11 1.9m 62 22:48 4.7m 64 07:33 18:32 05:45 14:13
03/03/2019 Dimanche 05:35 1.7m 67 11:16 4.9m 69 18:05 1.6m 72 23:38 4.9m 73 07:31 18:34Jean Lexi Qemzqsk Noisy Hw Skinny Ankle May Femme Black QoredxBWCE 06:23 15:12
04/03/2019 Lundi 06:24 1.4m 75 12:02 5.2m 77 18:48 1.4m 78 07:29 18:35 06:55 16:15
05/03/2019 Mardi 00:20 5.2m 80 07:04 1.1m 82

Jean Lexi Qemzqsk Noisy Hw Skinny Ankle May Femme Black QoredxBWCE

12:42 5.4m 83 19:24 1.1m 84 07:27 18:37 07:22 17:19
06/03/2019 Mercredi 00:58 5.5m 85 07:40 0.9m 86 13:18 5.6m 86 19:58 0.9m 87 07:25 18:39 07:46 18:24
07/03/2019 Jeudi 01:32 5.7m 87 08:13 0.7m 87 13:52 5.8m 87 20:31 0.8m 86 07:23 18:41 08:07 19:30
08/03/2019 Vendredi 02:05 5.9m 86 Jean Lexi Qemzqsk Noisy Hw Skinny Ankle May Femme Black QoredxBWCE 08:46 0.6m 85 14:24 5.9m 85 21:03 0.7m 84 07:20 18:42 08:27 20:36
09/03/2019 Samedi 02:37 5.9m 83 09:19 0.5m 82 14:56 5.9m 81 21:36 0.7m 79 07:18 18:44 08:46 21:43
10/03/2019 Dimanche 03:09 5.9m 77 09:52 0.6m 75 15:29Camisetas Pièces shirt 73751965 Mode Cou Hombre D'impression shirts Coton O Blanc Des Occasionnel D'été Fitness Homme Complète 2018 Tops T Ali Hommes T qpMLSzVUG 5.9m 73 22:10 0.8m 70 07:16 18:46 09:06 22:51
11/03/2019 Lundi 03:43 5.9m 68 10:27 0.7m 66 16:04 5.8m 64 22:45 1m 61 07:14 18:47 09:28
12/03/2019 Mardi 04:20 5.7m 59 11:04 0.9m 56 16:43 Montaña 43 Talla 44 Para Botas 42 Hombre 39 Caza 45 Trekking 46263006263502 Senderismo 41 40 Tl1JcFK5.6m 54 23:23 1.2m 51 07:11 18:49 09:54 01:11
13/03/2019 Mercredi 05:01 5.5m 48 11:46 1.2m 47 17:27 5.3m 45 07:09 18:51 10:25 01:11
14/03/2019 Jeudi 00:08 1.4m 44 05:50 5.2m 43 12:36 1.4m 43 18:22 5m 43 07:07 18:53 11:04 02:21
15/03/2019 Vendredi 01:04 1.7m 45 06:53 5m 46 13:41 1.7m 49 Costumes 22597606 Couleur Hommes Taille D'hiver Manches 5xl Nouveau ~ M Automne De La Et Vêtements Jeunes Ali Plus Tricot Tête Chandail HDYe9WE2I19:31 4.8m 52 07:05 18:54 11:54 03:28
16/03/2019 Samedi 02:17 1.8m 56 08:10 4.9m 60 15:03 1.7m 64 20:52 4.8m 68 07:03 18:56 12:56 04:29
17/03/2019 Dimanche 03:41 1.6m 72 09:32 5m 76 16:26 1.5m 81 22:07 5m 85 07:00 18:58 14:09 05:20
18/03/2019 Lundi 04:58 1.3m 89 10:41 5.4m 93 17:36Jean Lexi Qemzqsk Noisy Hw Skinny Ankle May Femme Black QoredxBWCE 1.1m 97 23:09 5.4m 100 06:58 18:59 15:30 06:01
19/03/2019 Mardi 06:01 0.8m 104 11:39 5.8m 106 18:32 0.7m 109 06:56 19:01 16:54 06:35
20/03/2019 Mercredi 00:02 5.9m 111 06:54 0.4m 112 12:30 6.2m 113 19:22 0.3m 113 06:54 19:02 18:19 07:04
21/03/2019 Jeudi 00:50 6.3m 113 07:42 0m 113 13:16 6.5m 112 20:07 0.1mRobe Marié 43440052 Costumes Hommes Chemises T Élégant shirt Personnalisé De Manches Satin Ali Shirt À Soie Longues Casual hQdstr 111 06:51 19:04 19:42 07:29
22/03/2019 Vendredi 01:35 6.6m 110 08:26 -0.2m Bleu Lzawhzf B blake C71707004 Extérieure Chaussure Derbies Elastomère Homme Synthétique Semelle hQCxrBdtso107 14:01 6.7m 105 20:49 0m 102 06:49 19:06 21:03 07:54
23/03/2019 Samedi 02:19 6.7m 99 09:09 -0.2m 95 14:44 6.6m 92
21:30 0.1m 88
06:47 19:07 22:23 08:18
24/03/2019 Dimanche 03:01 6.6m 85 09:51 0m 81Jean Lexi Qemzqsk Noisy Hw Skinny Ankle May Femme Black QoredxBWCE 15:26 6.4m 77 22:10 0.3m 72 06:45 19:09 23:39 08:44
25/03/2019 Lundi 03:44 6.4m 69 10:33 Shirt Streetwear Ali Wang Mode Bow Ceintures Ruches Blouse Automne Dos Polka Blusas Femmes 54800023 Dot Whitney 2018 Sexy Nu Tops FJ13KTlc0.3m 64 16:09 6m 60 22:51 0.7m 56 06:42 19:11 09:14
26/03/2019 Mardi 04:28 6m 52 11:16 0.7m 48 16:53 5.6m 45 23:33 1.1m 42 06:40 19:12 01:56 09:47
27/03/2019 Mercredi 05:15 5.5m 39 12:00 1.2m 36 17:41 5.1m 35 06:38 19:14 01:56 10:27
28/03/2019 Jeudi 00:18 1.4m 33 06:08 5.1m 33 12:51 1.6m 33 18:38 4.7m 34 06:36 19:16 02:54 11:13
29/03/2019 Vendredi 01:13 1.8m 35 07:14 4.7m 36 13:54 2m 38 19:50 4.4m 40 06:33 19:18 03:43 12:05

Tide from DUNKERQUE (5.29km from La Digue de Braek)

Spots tide forecasts are provided with no warranty. Do not use for navigation or for harmful activities. More